Time;durP1;ratioP1;P1;durP2;ratioP2;P2;SDS_P1;SDS_P2;PMS_P1;PMS_P2;Temp;Humidity;BMP_temperature;BMP_pressure;BME280_temperature;BME280_humidity;BME280_pressure;Samples;Min_cycle;Max_cycle;Signal;HPM_P1;HPM_P2
2024/01/25 00:15:59;585995.00;1.95;1010.04;90553.00;0.30;157.26;;;;;13.10;1.00;;;;;;2278553;61;1048;-93
2024/01/25 00:20:56;707606.00;2.36;1220.43;94293.00;0.31;163.72;;;;;13.20;1.00;;;;;;2274857;61;1950;-90
2024/01/25 00:58:27;1222274.00;4.07;2130.54;8626.00;0.03;15.57;;;;;12.90;1.00;;;;;;2274514;61;963;-93
2024/01/25 01:03:28;1154658.00;3.85;2008.45;13664.00;0.05;24.30;;;;;13.10;1.00;;;;;;2279111;61;1279;-91
2024/01/25 01:05:57;352349.00;1.17;607.90;15795.00;0.05;27.99;;;;;12.90;1.00;;;;;;2277369;61;1132;-91
2024/01/25 01:08:25;654718.00;2.18;1128.80;35754.00;0.12;62.54;;;;;12.90;1.00;;;;;;2277059;61;1681;-93
2024/01/25 01:10:52;508125.00;1.69;875.81;49489.00;0.16;86.30;;;;;12.90;1.00;;;;;;2277784;61;1604;-91
2024/01/25 01:13:19;301860.00;1.01;521.12;0.00;0.00;0.62;;;;;13.00;1.00;;;;;;2281445;61;1682;-89
2024/01/25 01:15:47;900824.00;3.00;1557.57;69717.00;0.23;121.27;;;;;13.00;1.00;;;;;;2281586;61;1700;-91
2024/01/25 01:18:14;579527.00;1.93;998.88;0.00;0.00;0.62;;;;;12.90;1.00;;;;;;2281562;61;1702;-91
2024/01/25 01:20:41;509185.00;1.70;877.64;0.00;0.00;0.62;;;;;12.60;1.00;;;;;;2281445;61;2001;-91
2024/01/25 01:23:08;595933.00;1.99;1027.20;0.00;0.00;0.62;;;;;12.80;1.00;;;;;;2281315;61;1779;-90
2024/01/25 01:25:35;459597.00;1.53;792.29;0.00;0.00;0.62;;;;;12.70;1.00;;;;;;2281302;61;1697;-89
2024/01/25 01:33:06;721606.00;2.41;1244.73;50408.00;0.17;87.89;;;;;12.90;1.00;;;;;;2279442;61;1337;-93
2024/01/25 01:53:35;452358.00;1.51;779.84;0.00;0.00;0.62;;;;;13.50;1.00;;;;;;2275175;61;995;-93
2024/01/25 01:56:03;378280.00;1.26;652.47;88621.00;0.30;153.93;;;;;13.40;1.00;;;;;;2272918;61;1070;-91
2024/01/25 02:03:36;701537.00;2.34;1209.90;23365.00;0.08;41.10;;;;;13.60;1.00;;;;;;2266629;61;982;-92
2024/01/25 02:08:38;649306.00;2.16;1119.44;33388.00;0.11;58.45;;;;;13.50;1.00;;;;;;2266731;61;1292;-93
2024/01/25 02:11:07;184354.00;0.61;318.99;0.00;0.00;0.62;;;;;13.60;1.00;;;;;;2265114;61;1325;-91
2024/01/25 02:13:34;444441.00;1.48;766.22;63835.00;0.21;111.11;;;;;13.40;1.00;;;;;;2264917;61;1565;-91
2024/01/25 02:16:02;235410.00;0.78;406.86;149.00;0.00;0.88;;;;;13.50;1.00;;;;;;2264776;61;959;-91
2024/01/25 02:18:29;195003.00;0.65;337.32;0.00;0.00;0.62;;;;;13.60;1.00;;;;;;2265155;61;794;-90
2024/01/25 02:20:56;126960.00;0.42;220.09;0.00;0.00;0.62;;;;;13.70;1.00;;;;;;2265086;61;1911;-90
2024/01/25 02:25:59;860008.00;2.87;1485.99;16534.00;0.06;29.27;;;;;13.50;1.00;;;;;;2267021;61;1294;-94
2024/01/25 02:30:57;623913.00;2.08;1075.53;31633.00;0.11;55.41;;;;;13.50;1.00;;;;;;2267070;61;1315;-94
2024/01/25 02:51:27;866793.00;2.89;1497.87;40031.00;0.13;69.94;;;;;13.90;1.00;;;;;;2280482;61;1359;-91
2024/01/25 02:53:54;663099.00;2.21;1143.31;33828.00;0.11;59.21;;;;;14.00;1.00;;;;;;2281269;61;1730;-90
2024/01/25 03:16:36;517535.00;1.73;892.02;0.00;0.00;0.62;;;;;13.70;1.00;;;;;;2278861;61;1014;-93
2024/01/25 03:19:03;224374.00;0.75;387.87;36808.00;0.12;64.37;;;;;13.50;1.00;;;;;;2276773;61;822;-91
2024/01/25 03:21:30;471797.00;1.57;813.28;0.00;0.00;0.62;;;;;13.10;1.00;;;;;;2276822;61;1990;-92
2024/01/25 04:09:42;429995.00;1.43;741.38;0.00;0.00;0.62;;;;;13.30;1.00;;;;;;2270606;61;1171;-92
2024/01/25 04:12:09;417433.00;1.39;719.78;88729.00;0.30;154.11;;;;;13.40;1.00;;;;;;2269433;61;1682;-90
2024/01/25 04:14:36;534882.00;1.78;921.90;118993.00;0.40;206.35;;;;;13.40;1.00;;;;;;2269630;61;1519;-91
2024/01/25 04:17:03;422023.00;1.41;727.67;109360.00;0.36;189.73;;;;;13.30;1.00;;;;;;2269657;61;832;-91
2024/01/25 04:19:30;423059.00;1.41;729.45;89244.00;0.30;155.00;;;;;13.30;1.00;;;;;;2269555;61;1606;-90
2024/01/25 05:00:20;410366.00;1.37;707.63;0.00;0.00;0.62;;;;;12.90;1.00;;;;;;2270857;61;1876;-90
2024/01/25 06:03:49;440872.00;1.47;760.08;0.00;0.00;0.62;;;;;12.70;1.00;;;;;;2270986;61;1020;-92
2024/01/25 06:06:16;232438.00;0.77;401.74;27769.00;0.09;48.72;;;;;12.50;1.00;;;;;;2269040;61;1583;-90
2024/01/25 06:08:43;190915.00;0.64;330.28;26129.00;0.09;45.88;;;;;12.60;1.00;;;;;;2269264;61;1519;-91
2024/01/25 06:11:11;150177.00;0.50;260.11;0.00;0.00;0.62;;;;;12.70;1.00;;;;;;2269228;61;1731;-93
2024/01/25 06:21:18;417111.00;1.39;719.22;0.00;0.00;0.62;;;;;12.80;1.00;;;;;;2270740;61;1873;-92
2024/01/25 06:26:19;109542.00;0.37;190.04;0.00;0.00;0.62;;;;;13.10;1.00;;;;;;2270665;61;1304;-93
2024/01/25 06:31:21;412672.00;1.38;711.59;0.00;0.00;0.62;;;;;13.00;1.00;;;;;;2267104;61;1202;-91
2024/01/25 06:41:31;630104.00;2.10;1086.23;0.00;0.00;0.62;;;;;12.30;1.00;;;;;;2270827;61;1872;-90
2024/01/25 08:05:57;1036077.00;3.45;1796.47;22433.00;0.07;39.48;;;;;11.30;1.00;;;;;;2275655;61;968;-89
2024/01/25 09:00:50;554987.00;1.85;956.56;0.00;0.00;0.62;;;;;12.40;1.00;;;;;;2278876;61;1895;-87
2024/01/25 09:03:18;100403.00;0.33;174.27;24060.00;0.08;42.30;;;;;12.60;1.00;;;;;;2281004;61;1743;-88
2024/01/25 09:05:45;48729.00;0.16;84.99;0.00;0.00;0.62;;;;;12.90;1.00;;;;;;2280933;61;1043;-87
2024/01/25 09:08:21;225466.00;0.75;389.75;23553.00;0.08;41.42;;;;;12.80;1.00;;;;;;2297502;41;3764;-87
2024/01/25 09:10:48;230805.00;0.77;398.93;23295.00;0.08;40.98;;;;;13.00;1.00;;;;;;2276682;61;1784;-90
2024/01/25 09:13:16;91207.00;0.30;158.39;0.00;0.00;0.62;;;;;13.20;1.00;;;;;;2276786;61;2364;-90
2024/01/25 09:15:46;171440.00;0.57;296.75;0.00;0.00;0.62;;;;;13.40;1.00;;;;;;2276708;61;1021;-88
2024/01/25 09:18:14;73792.00;0.25;128.31;0.00;0.00;0.62;;;;;13.60;1.00;;;;;;2276988;61;1014;-91
2024/01/25 09:20:47;170699.00;0.57;295.47;0.00;0.00;0.62;;;;;13.60;1.00;;;;;;2276611;61;2008;-87
2024/01/25 09:23:17;280728.00;0.94;484.79;0.00;0.00;0.62;;;;;13.60;1.00;;;;;;2286425;56;3712;-88
2024/01/25 09:25:45;279561.00;0.93;482.78;23479.00;0.08;41.29;;;;;13.40;1.00;;;;;;2280698;61;1049;-88
2024/01/25 09:28:12;231994.00;0.77;400.98;0.00;0.00;0.62;;;;;13.50;1.00;;;;;;2280846;61;1018;-88
2024/01/25 09:30:40;66234.00;0.22;115.25;0.00;0.00;0.62;;;;;13.60;1.00;;;;;;2280778;61;2223;-88
2024/01/25 09:33:07;208147.00;0.69;359.95;0.00;0.00;0.62;;;;;13.60;1.00;;;;;;2280748;61;1628;-88
2024/01/25 09:35:35;83580.00;0.28;145.22;0.00;0.00;0.62;;;;;13.70;1.00;;;;;;2280679;61;1728;-89
2024/01/25 09:38:02;186639.00;0.62;322.92;37599.00;0.13;65.73;;;;;13.80;1.00;;;;;;2281003;61;908;-89
2024/01/25 09:40:29;193466.00;0.64;334.68;37944.00;0.13;66.33;;;;;13.70;1.00;;;;;;2280647;61;1990;-88
2024/01/25 09:42:56;195640.00;0.65;338.42;0.00;0.00;0.62;;;;;13.50;1.00;;;;;;2280895;61;1382;-87
2024/01/25 09:45:25;107507.00;0.36;186.53;0.00;0.00;0.62;;;;;13.70;1.00;;;;;;2280684;61;990;-87
2024/01/25 09:48:04;57392.00;0.19;99.97;0.00;0.00;0.62;;;;;13.60;1.00;;;;;;2280646;61;1094;-88
2024/01/25 09:50:33;302271.00;1.01;521.82;0.00;0.00;0.62;;;;;13.60;1.00;;;;;;2280641;61;1635;-90
2024/01/25 09:55:36;395830.00;1.32;682.64;0.00;0.00;0.62;;;;;13.80;1.00;;;;;;2280146;40;3509;-88
2024/01/25 09:58:07;216468.00;0.72;374.27;40269.00;0.13;70.35;;;;;13.60;1.00;;;;;;2276692;61;1804;-87
2024/01/25 10:00:34;109530.00;0.37;190.02;0.00;0.00;0.62;;;;;13.40;1.00;;;;;;2276775;61;1919;-88
2024/01/25 10:03:02;98317.00;0.33;170.67;0.00;0.00;0.62;;;;;13.60;1.00;;;;;;2276630;61;1325;-90
2024/01/25 10:10:33;105461.00;0.35;183.00;0.00;0.00;0.62;;;;;14.10;1.00;;;;;;2278443;61;1430;-88
2024/01/25 10:13:00;261198.00;0.87;451.21;21764.00;0.07;38.32;;;;;14.10;1.00;;;;;;2280605;61;1319;-87
2024/01/25 10:15:27;58269.00;0.19;101.48;0.00;0.00;0.62;;;;;14.20;1.00;;;;;;2280721;61;1052;-88
2024/01/25 10:17:54;111782.00;0.37;193.90;0.00;0.00;0.62;;;;;14.30;1.00;;;;;;2280624;61;1525;-87
2024/01/25 10:20:24;130383.00;0.43;225.99;0.00;0.00;0.62;;;;;14.20;1.00;;;;;;2280801;61;958;-89
2024/01/25 10:22:52;88241.00;0.29;153.27;0.00;0.00;0.62;;;;;14.20;1.00;;;;;;2280618;61;2254;-87
2024/01/25 10:25:19;149680.00;0.50;259.26;0.00;0.00;0.62;;;;;14.40;1.00;;;;;;2280749;61;1613;-88
2024/01/25 10:27:48;18420.00;0.06;32.53;0.00;0.00;0.62;;;;;14.50;1.00;;;;;;2280647;61;1195;-88
2024/01/25 10:32:48;211491.00;0.70;365.70;0.00;0.00;0.62;;;;;15.00;1.00;;;;;;2274615;61;1346;-89
2024/01/25 10:35:16;96186.00;0.32;166.99;0.00;0.00;0.62;;;;;14.90;1.00;;;;;;2272473;61;980;-90
2024/01/25 10:37:43;66240.00;0.22;115.26;0.00;0.00;0.62;;;;;14.60;1.00;;;;;;2272525;61;1691;-90
2024/01/25 10:40:11;257429.00;0.86;444.73;26679.00;0.09;46.83;;;;;14.70;1.00;;;;;;2272571;61;1025;-88
2024/01/25 10:42:38;285268.00;0.95;492.59;0.00;0.00;0.62;;;;;15.20;1.00;;;;;;2272421;61;2010;-89
2024/01/25 10:45:11;65562.00;0.22;114.09;0.00;0.00;0.62;;;;;15.30;1.00;;;;;;2272477;61;986;-88
2024/01/25 10:47:40;26470.00;0.09;46.47;0.00;0.00;0.62;;;;;15.20;1.00;;;;;;2275566;55;3723;-89
2024/01/25 10:50:09;101342.00;0.34;175.89;0.00;0.00;0.62;;;;;15.10;1.00;;;;;;2277259;61;1534;-89
2024/01/25 10:52:38;124449.00;0.41;215.76;0.00;0.00;0.62;;;;;15.20;1.00;;;;;;2276613;61;2239;-89
2024/01/25 10:55:07;65747.00;0.22;114.41;0.00;0.00;0.62;;;;;15.30;1.00;;;;;;2276425;61;1098;-87
2024/01/25 10:57:37;119860408.00;399.53;69755784.00;0.00;0.00;0.62;;;;;15.40;1.00;;;;;;2276542;61;1018;-87
2024/01/25 11:00:10;29010.00;0.10;50.87;0.00;0.00;0.62;;;;;15.40;1.00;;;;;;2276515;61;1696;-87
2024/01/25 11:02:37;90579.00;0.30;157.31;0.00;0.00;0.62;;;;;14.90;1.00;;;;;;2276392;61;2005;-88
2024/01/25 11:05:09;282143.00;0.94;487.22;70651.00;0.24;122.89;;;;;14.80;1.00;;;;;;2276374;61;2271;-88
2024/01/25 11:10:06;157990.00;0.53;273.58;0.00;0.00;0.62;;;;;14.90;1.00;;;;;;2274758;61;1305;-92
2024/01/25 11:12:33;238186.00;0.79;411.63;55728.00;0.19;97.09;;;;;14.80;1.00;;;;;;2273184;61;1232;-89
2024/01/25 11:15:10;18649.00;0.06;32.93;0.00;0.00;0.62;;;;;14.70;1.00;;;;;;2303379;40;3732;-87
2024/01/25 11:17:41;256848.00;0.86;443.73;90155.00;0.30;156.58;;;;;14.90;1.00;;;;;;2276451;61;998;-89
2024/01/25 11:20:27;224940.00;0.75;388.84;48007.00;0.16;83.74;;;;;15.20;1.00;;;;;;2276460;61;1047;-90
2024/01/25 11:25:32;288742.00;0.96;498.57;0.00;0.00;0.62;;;;;15.60;1.00;;;;;;2274222;61;1418;-88
2024/01/25 11:28:00;155954.00;0.52;270.07;0.00;0.00;0.62;;;;;15.80;1.00;;;;;;2272503;61;1013;-89
2024/01/25 11:32:58;114075.00;0.38;197.86;0.00;0.00;0.62;;;;;15.70;1.00;;;;;;2274816;61;1312;-90
2024/01/25 11:35:25;182447.00;0.61;315.70;53570.00;0.18;93.36;;;;;15.50;1.00;;;;;;2273137;61;1636;-90
2024/01/25 11:37:52;176156.00;0.59;304.87;0.00;0.00;0.62;;;;;15.50;1.00;;;;;;2273167;61;778;-91
2024/01/25 11:40:20;154646.00;0.52;267.81;0.00;0.00;0.62;;;;;15.30;1.00;;;;;;2273109;61;1715;-90
2024/01/25 11:42:49;128642.00;0.43;222.99;0.00;0.00;0.62;;;;;15.60;1.00;;;;;;2273091;61;2006;-89
2024/01/25 11:45:17;223438.00;0.74;386.26;0.00;0.00;0.62;;;;;15.30;1.00;;;;;;2273164;61;1039;-90
2024/01/25 11:47:45;498501.00;1.66;859.24;31778.00;0.11;55.66;;;;;15.20;1.00;;;;;;2273069;61;1620;-89
2024/01/25 11:50:17;92049.00;0.31;159.85;0.00;0.00;0.62;;;;;15.40;1.00;;;;;;2273045;61;1580;-87
2024/01/25 11:52:44;182438.00;0.61;315.69;0.00;0.00;0.62;;;;;15.50;1.00;;;;;;2272961;61;2182;-90
2024/01/25 11:55:11;137344.00;0.46;237.99;0.00;0.00;0.62;;;;;15.50;1.00;;;;;;2273024;61;1469;-90
2024/01/25 11:57:40;89148.00;0.30;154.84;0.00;0.00;0.62;;;;;15.60;1.00;;;;;;2272947;61;1083;-89
2024/01/25 12:00:10;140527.00;0.47;243.48;25796.00;0.09;45.31;;;;;15.50;1.00;;;;;;2272997;61;1475;-91
2024/01/25 12:02:38;53104.00;0.18;92.55;0.00;0.00;0.62;;;;;15.70;1.00;;;;;;2273065;61;2004;-90
2024/01/25 12:05:06;169905.00;0.57;294.10;0.00;0.00;0.62;;;;;15.70;1.00;;;;;;2273021;61;2278;-89
2024/01/25 12:07:36;191982.00;0.64;332.12;0.00;0.00;0.62;;;;;15.90;1.00;;;;;;2272979;61;939;-90
2024/01/25 12:10:04;167907.00;0.56;290.66;0.00;0.00;0.62;;;;;15.50;1.00;;;;;;2272942;61;1564;-89
2024/01/25 12:12:31;408508.00;1.36;704.43;84755.00;0.28;147.25;;;;;15.40;1.00;;;;;;2272967;61;1181;-92
2024/01/25 12:15:00;259473.00;0.86;448.24;51705.00;0.17;90.13;;;;;15.40;1.00;;;;;;2272836;61;884;-89
2024/01/25 12:17:29;224460.00;0.75;388.02;0.00;0.00;0.62;;;;;15.20;1.00;;;;;;2272733;61;1340;-91
2024/01/25 12:19:57;126524.00;0.42;219.33;0.00;0.00;0.62;;;;;15.00;1.00;;;;;;2272344;61;1519;-88
2024/01/25 12:25:00;351873.00;1.17;607.08;20402.00;0.07;35.97;;;;;15.40;1.00;;;;;;2274609;61;1375;-89
2024/01/25 12:27:27;208474.00;0.69;360.51;23801.00;0.08;41.85;;;;;15.80;1.00;;;;;;2272980;61;469;-93
2024/01/25 12:29:55;305188.00;1.02;526.84;42354.00;0.14;73.96;;;;;15.90;1.00;;;;;;2272978;61;870;-89
2024/01/25 12:32:23;145038.00;0.48;251.26;0.00;0.00;0.62;;;;;15.30;1.00;;;;;;2273339;61;1285;-89
2024/01/25 12:34:56;94330.00;0.31;163.78;0.00;0.00;0.62;;;;;15.10;1.00;;;;;;2273543;61;852;-89
2024/01/25 12:37:26;109655.00;0.37;190.23;0.00;0.00;0.62;;;;;15.30;1.00;;;;;;2272599;61;1686;-87
2024/01/25 12:39:54;112069.00;0.37;194.40;0.00;0.00;0.62;;;;;15.40;1.00;;;;;;2272884;61;1609;-89
2024/01/25 12:42:24;311575.00;1.04;537.82;22075.00;0.07;38.86;;;;;15.80;1.00;;;;;;2272925;61;2000;-88
2024/01/25 12:44:54;178585.00;0.60;309.05;0.00;0.00;0.62;;;;;16.10;1.00;;;;;;2334967;55;3744;-87
2024/01/25 12:47:22;118137.00;0.39;204.87;0.00;0.00;0.62;;;;;16.30;1.00;;;;;;2276959;61;1093;-89
2024/01/25 12:52:19;721399.00;2.40;1244.37;221022.00;0.74;382.10;;;;;16.20;1.00;;;;;;2274456;61;1419;-88
2024/01/25 12:54:46;189236.00;0.63;327.39;90630.00;0.30;157.40;;;;;15.70;1.00;;;;;;2272757;61;1750;-88
2024/01/25 12:57:14;330992.00;1.10;571.19;10933.00;0.04;19.57;;;;;15.40;1.00;;;;;;2272873;61;1543;-88
2024/01/25 12:59:47;259672.00;0.87;448.58;0.00;0.00;0.62;;;;;15.30;1.00;;;;;;2272743;61;1580;-89
2024/01/25 13:02:14;223218.00;0.74;385.88;82999.00;0.28;144.22;;;;;15.40;1.00;;;;;;2272654;61;1920;-88
2024/01/25 13:04:41;244866.00;0.82;423.12;87875.00;0.29;152.64;;;;;15.60;1.00;;;;;;2272851;61;1472;-86
2024/01/25 13:07:09;338641.00;1.13;584.34;102844.00;0.34;178.48;;;;;15.80;1.00;;;;;;2272774;61;821;-88
2024/01/25 13:09:37;237132.00;0.79;409.82;147765.00;0.49;255.96;;;;;15.60;1.00;;;;;;2272835;61;912;-89
2024/01/25 13:12:04;118499168.00;395.00;67403944.00;63830.00;0.21;111.10;;;;;15.70;1.00;;;;;;2272729;61;1384;-87
2024/01/25 13:14:32;118116120.00;393.72;66751828.00;117679592.00;392.27;66013816.00;;;;;15.40;1.00;;;;;;2272801;61;1037;-89
2024/01/25 13:17:01;267878.00;0.89;462.70;29177.00;0.10;51.16;;;;;15.20;1.00;;;;;;2272678;61;2390;-87
2024/01/25 13:19:28;369977.00;1.23;638.20;0.00;0.00;0.62;;;;;15.00;1.00;;;;;;2272654;61;1771;-88
2024/01/25 13:21:55;265688.00;0.89;458.93;11812.00;0.04;21.09;;;;;15.00;1.00;;;;;;2272682;61;2006;-92
2024/01/25 13:24:22;398037.00;1.33;686.43;1404.00;0.00;3.05;;;;;14.90;1.00;;;;;;2272707;61;1671;-87
2024/01/25 13:26:50;245548.00;0.82;424.29;35578.00;0.12;62.24;;;;;15.00;1.00;;;;;;2275440;55;3727;-89
2024/01/25 13:29:17;466700.00;1.56;804.51;118537.00;0.40;205.56;;;;;15.30;1.00;;;;;;2289798;55;3758;-88
2024/01/25 13:31:45;103739.00;0.35;180.03;7768.00;0.03;14.08;;;;;15.40;1.00;;;;;;2268368;61;1300;-87
2024/01/25 13:36:43;380364.00;1.27;656.05;0.00;0.00;0.62;;;;;15.70;1.00;;;;;;2274540;61;1435;-88
2024/01/25 13:39:10;0.00;0.00;0.62;0.00;0.00;0.62;;;;;15.40;1.00;;;;;;2272755;61;1658;-90
2024/01/25 13:44:10;350932.00;1.17;605.46;93170.00;0.31;161.78;;;;;14.60;1.00;;;;;;2274657;61;1244;-87
2024/01/25 13:49:13;549380.00;1.83;946.89;91914.00;0.31;159.61;;;;;14.60;1.00;;;;;;2274104;61;1316;-88
2024/01/25 13:51:40;297844.00;0.99;514.21;122352.00;0.41;212.14;;;;;14.50;1.00;;;;;;2272548;61;1364;-86
2024/01/25 13:54:10;104858.00;0.35;181.96;0.00;0.00;0.62;;;;;14.60;1.00;;;;;;2272556;61;1714;-87
2024/01/25 13:56:39;120223464.00;400.74;70392144.00;119970976.00;399.90;69949176.00;;;;;14.70;1.00;;;;;;2272628;61;1416;-88
2024/01/25 14:01:36;573871.00;1.91;989.12;94356.00;0.31;163.83;;;;;14.70;1.00;;;;;;2270501;61;1375;-90
2024/01/25 14:06:39;553475.00;1.84;953.95;119684.00;0.40;207.54;;;;;14.60;1.00;;;;;;2278598;61;1317;-90
2024/01/25 14:11:43;774565.00;2.58;1336.80;101371.00;0.34;175.94;;;;;14.00;1.00;;;;;;2217693;40;3501;-87
2024/01/25 14:16:39;1236855.00;4.12;2157.00;83129.00;0.28;144.44;;;;;13.90;1.00;;;;;;2274209;61;1416;-88
2024/01/25 14:19:06;798738.00;2.66;1378.92;91255.00;0.30;158.47;;;;;14.10;1.00;;;;;;2272583;61;1054;-89
2024/01/25 14:21:33;652764.00;2.18;1125.42;86454.00;0.29;150.18;;;;;14.20;1.00;;;;;;2272695;61;1273;-90
2024/01/25 14:24:00;812287.00;2.71;1402.56;136457.00;0.45;236.46;;;;;14.20;1.00;;;;;;2272617;61;1927;-89
2024/01/25 14:26:27;805978.00;2.69;1391.55;86721.00;0.29;150.65;;;;;14.40;1.00;;;;;;2272644;61;1066;-88
2024/01/25 14:28:55;726013.00;2.42;1252.38;111585.00;0.37;193.56;;;;;14.30;1.00;;;;;;2272300;61;1056;-89
2024/01/25 14:31:22;503540.00;1.68;867.92;82412.00;0.27;143.20;;;;;14.50;1.00;;;;;;2272619;61;1366;-90
2024/01/25 14:33:49;646520.00;2.16;1114.62;86058.00;0.29;149.50;;;;;14.80;1.00;;;;;;2272536;61;1581;-87
2024/01/25 14:36:16;646334.00;2.15;1114.29;86160.00;0.29;149.68;;;;;14.70;1.00;;;;;;2272469;61;1452;-89
2024/01/25 14:38:43;874339.00;2.91;1511.09;90658.00;0.30;157.44;;;;;14.60;1.00;;;;;;2272390;61;1101;-88
2024/01/25 14:41:10;1001059.00;3.34;1734.35;137609.00;0.46;238.45;;;;;14.60;1.00;;;;;;2272438;61;1275;-87
2024/01/25 14:43:38;931560.00;3.11;1611.62;94366.00;0.31;163.85;;;;;14.60;1.00;;;;;;2272293;61;1927;-89
2024/01/25 14:46:07;972983.00;3.24;1684.68;137697.00;0.46;238.60;;;;;14.60;1.00;;;;;;2272527;61;1010;-89
2024/01/25 14:48:34;785106.00;2.62;1355.16;120786.00;0.40;209.44;;;;;14.80;1.00;;;;;;2272492;61;1032;-89
2024/01/25 14:51:01;799509.00;2.67;1380.27;106934.00;0.36;185.54;;;;;14.80;1.00;;;;;;2272290;61;1383;-88
2024/01/25 14:56:01;1081095.00;3.60;1876.65;46393.00;0.15;80.95;;;;;14.90;1.00;;;;;;2283144;40;3469;-88
2024/01/25 14:58:29;579469.00;1.93;998.78;0.00;0.00;0.62;;;;;15.10;1.00;;;;;;2276293;61;1314;-90
2024/01/25 15:00:56;479894.00;1.60;827.22;0.00;0.00;0.62;;;;;14.80;1.00;;;;;;2316590;56;3710;-89
2024/01/25 15:03:24;834236.00;2.78;1440.90;33554.00;0.11;58.73;;;;;14.90;1.00;;;;;;2268416;61;1997;-89
2024/01/25 15:05:51;828519.00;2.76;1430.91;32417.00;0.11;56.77;;;;;14.90;1.00;;;;;;2268250;61;941;-89
2024/01/25 15:08:18;491676.00;1.64;847.49;0.00;0.00;0.62;;;;;14.80;1.00;;;;;;2268311;61;1554;-88
2024/01/25 15:10:45;422699.00;1.41;728.83;0.00;0.00;0.62;;;;;14.80;1.00;;;;;;2268286;61;1718;-88
2024/01/25 15:13:11;490792.00;1.64;845.97;13468.00;0.04;23.96;;;;;14.90;1.00;;;;;;2268302;61;966;-88
2024/01/25 15:15:38;605096.00;2.02;1043.02;0.00;0.00;0.62;;;;;15.00;1.00;;;;;;2268181;61;1554;-89
2024/01/25 15:18:05;588623.00;1.96;1014.58;89328.00;0.30;155.15;;;;;14.90;1.00;;;;;;2268390;61;940;-89
2024/01/25 15:23:08;676661.00;2.26;1166.79;47155.00;0.16;82.27;;;;;14.80;1.00;;;;;;2274602;61;1954;-90
2024/01/25 15:25:35;458957.00;1.53;791.19;0.00;0.00;0.62;;;;;14.80;1.00;;;;;;2272288;61;1008;-88
2024/01/25 15:28:02;427982.00;1.43;737.92;0.00;0.00;0.62;;;;;14.90;1.00;;;;;;2272330;61;1673;-89
2024/01/25 15:30:29;536637.00;1.79;924.93;25056.00;0.08;44.02;;;;;14.80;1.00;;;;;;2272190;61;1114;-88
2024/01/25 15:32:57;582818.00;1.94;1004.56;31872.00;0.11;55.82;;;;;15.00;1.00;;;;;;2272432;61;1366;-90
2024/01/25 15:45:39;180062.00;0.60;311.60;0.00;0.00;0.62;;;;;15.00;1.00;;;;;;2279914;55;3658;-87
2024/01/25 15:58:13;266481.00;0.89;460.29;0.00;0.00;0.62;;;;;15.10;1.00;;;;;;2273970;61;1416;-89
2024/01/25 16:00:41;65483.00;0.22;113.95;0.00;0.00;0.62;;;;;15.20;1.00;;;;;;2272181;61;2320;-89
2024/01/25 16:05:41;111264.00;0.37;193.01;0.00;0.00;0.62;;;;;14.90;1.00;;;;;;2273753;61;1305;-89
2024/01/25 16:08:08;32880.00;0.11;57.57;0.00;0.00;0.62;;;;;14.70;1.00;;;;;;2272846;61;1649;-89
2024/01/25 16:10:35;116941368.00;389.80;64778156.00;116830872.00;389.44;64594544.00;;;;;14.40;1.00;;;;;;2272802;61;945;-89
2024/01/25 16:13:01;185032.00;0.62;320.15;0.00;0.00;0.62;;;;;14.20;1.00;;;;;;2272833;61;1411;-88
2024/01/25 16:15:28;0.00;0.00;0.62;0.00;0.00;0.62;;;;;14.20;1.00;;;;;;2272851;61;983;-89
2024/01/25 16:17:57;101932.00;0.34;176.91;18622.00;0.06;32.88;;;;;14.00;1.00;;;;;;2272891;61;1074;-89
2024/01/25 16:20:25;18780.00;0.06;33.16;0.00;0.00;0.62;;;;;13.90;1.00;;;;;;2272915;61;1740;-89
2024/01/25 16:22:52;30156.00;0.10;52.85;0.00;0.00;0.62;;;;;13.80;1.00;;;;;;2272700;61;1922;-89
2024/01/25 16:25:20;29897.00;0.10;52.40;0.00;0.00;0.62;;;;;13.80;1.00;;;;;;2272688;61;1630;-90
2024/01/25 16:27:48;119541.00;0.40;207.29;0.00;0.00;0.62;;;;;13.80;1.00;;;;;;2272674;61;1180;-89
2024/01/25 16:30:15;0.00;0.00;0.62;0.00;0.00;0.62;;;;;13.80;1.00;;;;;;2272749;61;1055;-90
2024/01/25 16:32:42;189735.00;0.63;328.25;32053.00;0.11;56.14;;;;;13.70;1.00;;;;;;2272686;61;1371;-89
2024/01/25 16:35:11;0.00;0.00;0.62;0.00;0.00;0.62;;;;;13.40;1.00;;;;;;2272633;61;1767;-87
2024/01/25 16:37:38;144777.00;0.48;250.81;17958.00;0.06;31.73;;;;;13.40;1.00;;;;;;2272782;61;1013;-87
2024/01/25 16:40:06;12931.00;0.04;23.03;0.00;0.00;0.62;;;;;13.30;1.00;;;;;;2272824;61;2322;-90
2024/01/25 16:42:33;501555.00;1.67;864.50;181145.00;0.60;313.46;;;;;13.40;1.00;;;;;;2272620;61;2012;-90
2024/01/25 16:45:00;39693.00;0.13;69.36;0.00;0.00;0.62;;;;;13.30;1.00;;;;;;2272816;61;1020;-89
2024/01/25 16:47:27;200092.00;0.67;346.08;52344.00;0.17;91.24;;;;;13.40;1.00;;;;;;2272777;61;1498;-90
2024/01/25 16:49:54;49381.00;0.16;86.12;0.00;0.00;0.62;;;;;13.60;1.00;;;;;;2272693;61;1051;-89
2024/01/25 16:52:23;35317.00;0.12;61.79;0.00;0.00;0.62;;;;;13.60;1.00;;;;;;2272707;61;1372;-88
2024/01/25 16:54:50;31802.00;0.11;55.70;0.00;0.00;0.62;;;;;13.60;1.00;;;;;;2272851;61;1569;-89
2024/01/25 16:57:17;6029.00;0.02;11.07;0.00;0.00;0.62;;;;;13.80;1.00;;;;;;2272732;61;1083;-89
2024/01/25 16:59:43;81401.00;0.27;141.46;0.00;0.00;0.62;;;;;13.90;1.00;;;;;;2272677;61;1021;-91
2024/01/25 17:02:10;178662.00;0.60;309.19;23796.00;0.08;41.84;;;;;13.80;1.00;;;;;;2272523;61;2373;-88
2024/01/25 17:04:37;61633.00;0.21;107.30;0.00;0.00;0.62;;;;;13.80;1.00;;;;;;2272483;61;2013;-90
2024/01/25 17:12:05;82132.00;0.27;142.72;0.00;0.00;0.62;;;;;13.90;1.00;;;;;;2274376;61;1384;-89
2024/01/25 17:14:32;12488.00;0.04;22.26;0.00;0.00;0.62;;;;;13.90;1.00;;;;;;2272796;61;1630;-89
2024/01/25 17:16:59;53501.00;0.18;93.24;0.00;0.00;0.62;;;;;13.90;1.00;;;;;;2272520;61;1590;-89
2024/01/25 17:19:27;176824.00;0.59;306.02;0.00;0.00;0.62;;;;;13.80;1.00;;;;;;2272738;61;1059;-89
2024/01/25 17:21:54;52693.00;0.18;91.84;0.00;0.00;0.62;;;;;13.70;1.00;;;;;;2272684;61;1389;-90
2024/01/25 17:24:21;164007.00;0.55;283.94;0.00;0.00;0.62;;;;;13.80;1.00;;;;;;2299549;40;3568;-90
2024/01/25 17:26:48;131737.00;0.44;228.32;0.00;0.00;0.62;;;;;13.80;1.00;;;;;;2276537;61;1661;-90
2024/01/25 17:29:16;105111.00;0.35;182.39;0.00;0.00;0.62;;;;;14.00;1.00;;;;;;2276613;61;925;-89
2024/01/25 17:31:43;93505.00;0.31;162.36;0.00;0.00;0.62;;;;;14.00;1.00;;;;;;2276455;61;1293;-90
2024/01/25 17:34:10;0.00;0.00;0.62;0.00;0.00;0.62;;;;;14.00;1.00;;;;;;2301890;55;3775;-90
2024/01/25 17:36:36;19152.00;0.06;33.80;0.00;0.00;0.62;;;;;14.10;1.00;;;;;;2268574;61;1176;-89
2024/01/25 17:39:04;129519.00;0.43;224.50;0.00;0.00;0.62;;;;;14.20;1.00;;;;;;2268434;61;1564;-90
2024/01/25 17:41:31;19941.00;0.07;35.17;0.00;0.00;0.62;;;;;14.40;1.00;;;;;;2268443;61;1313;-90
2024/01/25 17:43:58;77986.00;0.26;135.56;0.00;0.00;0.62;;;;;14.30;1.00;;;;;;2268537;61;1915;-87
2024/01/25 17:46:26;180204.00;0.60;311.84;0.00;0.00;0.62;;;;;14.30;1.00;;;;;;2268626;61;928;-88
2024/01/25 17:48:53;140343.00;0.47;243.16;0.00;0.00;0.62;;;;;14.10;1.00;;;;;;2268394;61;904;-89
2024/01/25 17:51:20;93281.00;0.31;161.97;0.00;0.00;0.62;;;;;13.80;1.00;;;;;;2268549;61;1289;-88
2024/01/25 17:53:47;121321.00;0.40;210.36;0.00;0.00;0.62;;;;;13.60;1.00;;;;;;2268419;61;1643;-88
2024/01/25 17:56:15;13768.00;0.05;24.48;0.00;0.00;0.62;;;;;13.60;1.00;;;;;;2268622;61;1020;-87
2024/01/25 17:58:42;66990.00;0.22;116.56;0.00;0.00;0.62;;;;;13.70;1.00;;;;;;2295818;41;3585;-89
2024/01/25 18:01:09;53064.00;0.18;92.48;0.00;0.00;0.62;;;;;13.90;1.00;;;;;;2268504;61;1242;-90
2024/01/25 18:03:37;6069.00;0.02;11.14;0.00;0.00;0.62;;;;;14.00;1.00;;;;;;2268485;61;2010;-89
2024/01/25 18:06:06;103325.00;0.34;179.31;0.00;0.00;0.62;;;;;13.80;1.00;;;;;;2274929;55;3737;-87
2024/01/25 18:08:33;8322.00;0.03;15.04;0.00;0.00;0.62;;;;;13.90;1.00;;;;;;2291805;41;3647;-87
2024/01/25 18:11:00;125086.00;0.42;216.85;0.00;0.00;0.62;;;;;13.90;1.00;;;;;;2264395;61;1523;-88